Terminal Aerodrome Forecast
Issued by NWS Binghamton, NY

Home | Current Version | Previous Version | Text Only | Print | Product List | Glossary On
Versions: 1 2 3 4 5 6 7 8 9 10 11 12 13 14 15 16 17
676
FTUS41 KBGM 260531
TAFBGM
TAF
KBGM 260531Z 2606/2706 08007KT P6SM SCT006 OVC012
      TEMPO 2606/2610 4SM BR OVC006
     FM261000 08005KT 4SM BR OVC006
     FM261400 11005KT P6SM OVC015
     FM262100 15005KT P6SM SCT025 OVC035=

USA.gov is the U.S. government's official web portal to all federal, state and local government web resources and services.